createdAt,value
2018-12-02T00:10:49.439Z,6.40
2018-12-02T00:30:38.704Z,6.80
2018-12-02T00:33:08.530Z,7.00
2018-12-02T00:35:36.919Z,7.00
2018-12-02T00:38:07.115Z,7.00
2018-12-02T00:57:56.938Z,7.40
2018-12-02T01:00:25.393Z,7.50
2018-12-02T01:20:14.895Z,7.90
2018-12-02T01:22:43.614Z,7.90
2018-12-02T01:42:32.854Z,7.90
2018-12-02T02:02:22.394Z,8.40
2018-12-02T02:04:50.765Z,8.50
2018-12-02T02:24:40.619Z,8.60
2018-12-02T02:27:08.978Z,8.60
2018-12-02T02:46:58.775Z,8.70
2018-12-02T02:49:27.135Z,8.70
2018-12-02T03:09:16.914Z,8.70
2018-12-02T03:11:45.302Z,8.70
2018-12-02T03:14:13.668Z,8.60
2018-12-02T03:34:03.874Z,8.80
2018-12-02T03:36:32.226Z,8.80
2018-12-02T03:56:20.878Z,8.90
2018-12-02T04:16:09.954Z,9.00
2018-12-02T04:18:38.379Z,9.10
2018-12-02T04:38:27.691Z,9.40
2018-12-02T04:40:56.102Z,9.40
2018-12-02T04:43:24.473Z,9.50
2018-12-02T04:45:52.840Z,9.50
2018-12-02T04:48:21.314Z,9.60
2018-12-02T04:50:49.675Z,9.60
2018-12-02T04:53:18.050Z,9.60
2018-12-02T04:55:46.458Z,9.60
2018-12-02T04:58:14.826Z,9.60
2018-12-02T05:00:43.199Z,9.60
2018-12-02T05:03:11.603Z,9.60
2018-12-02T05:05:39.994Z,9.50
2018-12-02T05:25:29.504Z,8.90
2018-12-02T05:27:57.891Z,8.80
2018-12-02T05:47:47.848Z,8.40
2018-12-02T05:50:20.452Z,8.40
2018-12-02T05:52:52.103Z,8.40
2018-12-02T05:55:22.938Z,8.40
2018-12-02T05:57:51.350Z,8.50
2018-12-02T06:00:20.801Z,8.50
2018-12-02T06:02:49.203Z,8.50
2018-12-02T06:05:17.677Z,8.50
2018-12-02T06:07:46.052Z,8.50
2018-12-02T06:10:17.766Z,8.50
2018-12-02T06:12:46.146Z,8.40
2018-12-02T06:15:15.472Z,8.40
2018-12-02T06:35:06.675Z,8.20
2018-12-02T06:37:35.045Z,8.20
2018-12-02T06:40:03.914Z,8.10
2018-12-02T06:42:32.326Z,8.10
2018-12-02T06:45:00.705Z,8.10
2018-12-02T06:47:29.077Z,8.10
2018-12-02T06:49:57.478Z,8.10
2018-12-02T06:52:25.914Z,8.00
2018-12-02T07:12:15.276Z,7.90
2018-12-02T07:14:43.653Z,7.90
2018-12-02T07:17:12.035Z,7.80
2018-12-02T07:19:47.735Z,7.80
2018-12-02T07:22:20.118Z,7.80
2018-12-02T07:42:09.271Z,7.90
2018-12-02T07:44:37.630Z,7.90
2018-12-02T07:47:06.156Z,7.90
2018-12-02T07:49:34.548Z,7.90
2018-12-02T07:52:02.945Z,7.90
2018-12-02T08:11:51.967Z,8.00
2018-12-02T08:14:20.342Z,8.00
2018-12-02T08:34:10.544Z,8.00
2018-12-02T08:36:38.907Z,8.00
2018-12-02T08:56:28.436Z,8.10
2018-12-02T08:58:56.831Z,8.00
2018-12-02T09:01:25.203Z,8.00
2018-12-02T09:03:53.615Z,8.00
2018-12-02T09:06:21.989Z,7.90
2018-12-02T09:08:50.378Z,7.90
2018-12-02T09:11:18.802Z,7.90
2018-12-02T09:13:47.224Z,7.90
2018-12-02T09:16:15.609Z,7.90
2018-12-02T09:18:44.030Z,8.00
2018-12-02T09:21:12.390Z,7.90
2018-12-02T09:23:40.754Z,7.90
2018-12-02T09:26:09.178Z,7.90
2018-12-02T09:28:37.541Z,7.90
2018-12-02T09:31:05.942Z,7.90
2018-12-02T09:33:34.335Z,7.90
2018-12-02T09:36:02.718Z,7.80
2018-12-02T09:38:31.082Z,7.80
2018-12-02T09:40:59.499Z,7.80
2018-12-02T09:43:27.867Z,7.80
2018-12-02T09:45:56.242Z,7.80
2018-12-02T09:48:24.635Z,7.70
2018-12-02T09:50:52.994Z,7.70
2018-12-02T09:53:21.375Z,7.70
2018-12-02T10:13:13.571Z,7.50
2018-12-02T10:15:43.147Z,7.50
2018-12-02T10:35:32.547Z,7.90
2018-12-02T10:55:57.999Z,8.10
2018-12-02T11:15:49.071Z,8.30
2018-12-02T11:35:38.667Z,8.50
2018-12-02T11:38:08.150Z,8.50
2018-12-02T11:40:37.298Z,8.50
2018-12-02T11:43:06.814Z,8.50
2018-12-02T11:45:35.354Z,8.50
2018-12-02T11:48:03.734Z,8.40
2018-12-02T12:07:52.971Z,8.50
2018-12-02T12:10:23.316Z,8.60
2018-12-02T12:12:53.094Z,8.60
2018-12-02T12:15:22.644Z,8.70
2018-12-02T12:17:52.287Z,8.60
2018-12-02T12:20:40.810Z,8.70
2018-12-02T12:23:10.874Z,8.70
2018-12-02T12:25:40.152Z,8.80
2018-12-02T12:28:09.074Z,8.80
2018-12-02T12:30:38.266Z,8.80
2018-12-02T12:33:07.754Z,8.90
2018-12-02T12:35:37.182Z,8.90
2018-12-02T12:38:06.338Z,8.90
2018-12-02T12:57:56.245Z,9.10
2018-12-02T13:17:48.455Z,9.10
2018-12-02T13:20:18.179Z,9.10
2018-12-02T13:22:46.582Z,9.10
2018-12-02T13:42:45.203Z,9.20
2018-12-02T13:45:15.979Z,9.20
2018-12-02T13:47:44.421Z,9.20
2018-12-02T13:50:15.522Z,9.20
2018-12-02T13:52:44.374Z,9.20
2018-12-02T13:55:18.262Z,9.20
2018-12-02T13:57:47.382Z,9.20
2018-12-02T14:00:17.843Z,9.20
2018-12-02T14:02:51.732Z,9.20
2018-12-02T14:05:20.123Z,9.20
2018-12-02T14:07:48.495Z,9.20
2018-12-02T14:10:17.203Z,9.20
2018-12-02T14:12:49.271Z,9.20
2018-12-02T14:15:26.425Z,9.20
2018-12-02T14:18:02.646Z,9.30
2018-12-02T14:20:31.176Z,9.30
2018-12-02T14:22:59.542Z,9.20
2018-12-02T14:42:49.528Z,9.20
2018-12-02T14:45:18.175Z,9.20
2018-12-02T14:47:46.570Z,9.20
2018-12-02T14:50:17.400Z,9.20
2018-12-02T14:52:47.987Z,9.20
2018-12-02T14:55:18.547Z,9.20
2018-12-02T14:57:46.894Z,9.20
2018-12-02T15:00:19.150Z,9.20
2018-12-02T15:02:47.542Z,9.30
2018-12-02T15:05:15.926Z,9.20
2018-12-02T15:07:45.047Z,9.30
2018-12-02T15:10:15.762Z,9.30
2018-12-02T15:30:08.844Z,9.40
2018-12-02T15:32:37.232Z,9.40
2018-12-02T15:35:06.679Z,9.40
2018-12-02T15:54:56.655Z,9.40
2018-12-02T15:57:25.038Z,9.40
2018-12-02T15:59:53.419Z,9.40
2018-12-02T16:02:22.113Z,9.40
2018-12-02T16:22:12.142Z,9.50
2018-12-02T16:24:40.540Z,9.50
2018-12-02T16:27:08.927Z,9.50
2018-12-02T16:29:37.287Z,9.50
2018-12-02T16:49:27.267Z,9.70
2018-12-02T16:51:55.662Z,9.70
2018-12-02T17:11:44.993Z,9.90
2018-12-02T17:14:13.361Z,9.90
2018-12-02T17:16:41.722Z,9.90
2018-12-02T17:19:10.114Z,10.00
2018-12-02T17:21:38.491Z,10.00
2018-12-02T17:24:08.267Z,9.90
2018-12-02T17:43:58.953Z,10.00
2018-12-02T17:46:27.380Z,10.00
2018-12-02T18:06:16.535Z,9.80
2018-12-02T18:08:46.511Z,9.70
2018-12-02T18:11:15.352Z,9.70
2018-12-02T18:13:45.532Z,9.60
2018-12-02T18:16:14.521Z,9.70
2018-12-02T18:18:43.600Z,9.70
2018-12-02T18:21:12.763Z,9.70
2018-12-02T18:42:08.170Z,10.10
2018-12-02T18:44:36.673Z,10.20
2018-12-02T18:47:05.077Z,10.20
2018-12-02T19:06:58.559Z,10.10
2018-12-02T19:09:23.599Z,10.10
2018-12-02T19:11:52.310Z,10.10
2018-12-02T19:31:41.867Z,10.30
2018-12-02T19:51:31.110Z,10.40
2018-12-02T20:11:20.838Z,10.30
2018-12-02T20:31:17.086Z,10.10
2018-12-02T20:51:05.014Z,9.90
2018-12-02T21:10:54.486Z,10.00
2018-12-02T21:13:22.908Z,10.00
2018-12-02T21:15:51.270Z,10.00
2018-12-02T21:35:41.894Z,10.10
2018-12-02T21:38:10.262Z,10.10
2018-12-02T21:40:38.655Z,10.10
2018-12-02T21:43:07.102Z,10.10
2018-12-02T22:02:56.270Z,10.00
2018-12-02T22:05:25.048Z,10.00
2018-12-02T22:07:53.467Z,9.90
2018-12-02T22:10:36.719Z,10.00
2018-12-02T22:30:26.998Z,9.90
2018-12-02T22:50:17.803Z,9.90
2018-12-02T23:10:08.087Z,9.90
2018-12-02T23:29:57.330Z,10.10
2018-12-02T23:32:25.777Z,10.10
2018-12-02T23:34:54.210Z,10.00
2018-12-02T23:54:44.250Z,10.00
